METAR Data
IDs: Format: Raw Decoded Include TAF

Data at: 0017 UTC 26 Oct 2021

PABV 252356Z AUTO 00000KT 10SM CLR 04/01 A2907 RMK AO2 SLP849 T00390011 10039 21011 56005
PABV 252256Z AUTO 27004KT 10SM CLR 03/01 A2907 RMK AO2 SLP850 T00330011
PABV 252156Z AUTO 26003KT 10SM FEW110 03/01 A2907 RMK AO2 SLP851 T00280011
PABV 252056Z AUTO 20004KT 10SM CLR 01/M01 A2908 RMK AO2 SLP854 T00061006 58003 FZRANO
PABV 251956Z AUTO 00000KT 10SM OVC095 00/M01 A2909 RMK AO2 SLP857 T00001011 FZRANO
PABV 251856Z AUTO 20003KT 10SM FEW005 M01/M02 A2909 RMK AO2 SLP857 T10111022 FZRANO
PABV 251848Z AUTO 19003KT 10SM SCT005 M01/M02 A2909 RMK AO2 FZRANO
PABV 251805Z AUTO 00000KT 10SM BKN005 OVC095 M01/M02 A2909 RMK AO2 FZRANO
PABV 251756Z AUTO 00000KT 10SM SCT005 OVC095 M01/M02 A2909 RMK AO2 SLP857 T10061017 11006 21017 56006 FZRANO
PABV 251656Z AUTO 00000KT 10SM FEW002 OVC100 M01/M02 A2910 RMK AO2 SLP858 T10061017 FZRANO
PABV 251653Z AUTO 00000KT 10SM SCT002 OVC110 M01/M02 A2910 RMK AO2 FZRANO
PABV 251603Z AUTO 00000KT 10SM OVC002 M01/M02 A2911 RMK AO2 FZRANO
PABV 251556Z AUTO 17003KT 10SM OVC004 M01/M02 A2911 RMK AO2 SLP863 T10061017 FZRANO
PABV 251552Z AUTO 00000KT 6SM BR OVC004 M01/M02 A2911 RMK AO2 FZRANO
PABV 251537Z AUTO 18004KT 2 1/2SM BR BKN004 M01/M02 A2911 RMK AO2 VIS 1 1/2V4 FZRANO
PABV 251525Z AUTO 17006KT 1 1/4SM BR FEW004 M01/M02 A2912 RMK AO2 FZRANO
PABV 251523Z AUTO 17005KT 1SM BR VV005 M01/M02 A2912 RMK AO2 FZRANO
PABV 251512Z AUTO 19005KT 3/4SM BR SCT110 M01/M02 A2912 RMK AO2 FZRANO
PABV 251507Z AUTO 20006KT 1 3/4SM BR SCT110 M02/M02 A2912 RMK AO2 FZRANO
PABV 251456Z AUTO 21005KT 10SM OVC110 M02/M03 A2912 RMK AO2 SLP867 T10171028 57015 FZRANO
PABV 251356Z AUTO 20003KT 10SM OVC110 M01/M02 A2914 RMK AO2 SLP872 T10111017 FZRANO
PABV 251256Z AUTO 20003KT 10SM OVC100 M01/M02 A2915 RMK AO2 SLP877 T10111022 FZRANO
PABV 251156Z AUTO 14003KT 10SM BKN100 M02/M03 A2916 RMK AO2 SLP882 T10171028 10006 21022 58017 FZRANO
PABV 251056Z AUTO 19003KT 10SM BKN110 M02/M03 A2919 RMK AO2 SLP889 T10171028 FZRANO
PABV 250956Z AUTO 16003KT 10SM CLR M01/M03 A2920 RMK AO2 SLP895 T10111028 FZRANO
PABV 250856Z AUTO 00000KT 10SM CLR M01/M02 A2921 RMK AO2 SLP899 T10111022 400891011 56016 FZRANO
PABV 250756Z AUTO 15003KT 10SM CLR M01/M02 A2923 RMK AO2 SLP903 T10111022 FZRANO
PABV 250656Z AUTO 16003KT 10SM CLR M01/M03 A2924 RMK AO2 SLP908 T10061028 FZRANO
PABV 250556Z AUTO 00000KT 10SM CLR 00/M02 A2926 RMK AO2 SLP915 T00001022 10078 20000 58020 FZRANO
PABV 250456Z AUTO 13006KT 10SM CLR 04/M04 A2928 RMK AO2 SLP922 T00391039
PABV 250356Z AUTO 13005KT 10SM CLR 05/M04 A2930 RMK AO2 SLP929 T00501039
PABV 250256Z AUTO 11007KT 10SM CLR 06/M03 A2932 RMK AO2 SLP935 T00561033 58016
PABV 250156Z AUTO 12003KT 10SM CLR 06/M02 A2934 RMK AO2 SLP940 T00611022
PABV 250056Z AUTO 00000KT 10SM CLR 07/02 A2935 RMK AO2 SLP946 T00720017
PABV 242356Z AUTO 02003KT 10SM CLR 07/03 A2937 RMK AO2 SLP951 T00720033 10089 20028 58017
PABV 242256Z AUTO 00000KT 10SM CLR 06/02 A2940 RMK AO2 SLP961 T00610022
PABV 242156Z AUTO 01003KT 10SM CLR 06/02 A2941 RMK AO2 SLP965 T00560022
PABV 242056Z AUTO 00000KT 10SM CLR 06/02 A2942 RMK AO2 SLP967 T00560022 58003
PABV 241956Z AUTO 19006KT 10SM FEW070 04/02 A2942 RMK AO2 SLP969 T00440017
PABV 241856Z AUTO 00000KT 10SM BKN070 OVC085 04/02 A2943 RMK AO2 SLP971 T00390017
PABV 241756Z AUTO 21006KT 10SM OVC090 03/01 A2943 RMK AO2 SLP970 60000 T00330011 10056 20022 51005
PABV 241656Z AUTO 00000KT 10SM OVC090 03/01 A2942 RMK AO2 SLP969 T00280011
PABV 241556Z AUTO 04006KT 10SM OVC085 05/02 A2942 RMK AO2 SLP968 T00500017
PABV 241456Z AUTO 00000KT 10SM OVC080 03/01 A2941 RMK AO2 SLP965 60000 T00330011 51008
PABV 241356Z AUTO 00000KT 10SM OVC070 04/01 A2941 RMK AO2 SLP964 T00440011
PABV 241256Z AUTO 06006KT 10SM OVC070 03/01 A2940 RMK AO2 RAB03E41 SLP962 P0000 T00280011